SWR449 LDSP-LSZH
Flight info
| Callsign | SWR449 |
|---|---|
| Flight time | 1h 20m |
| Altitude | 34000 |
| Route | ZDA DCT MONFA DCT BAKOR DCT SOTOV/N0417F300 P66 KPT L856 NEGRA |
| Aircraft | A320/M-SDE3FGHIRWY/LB1 |
Departure
| Time | 2026-04-26 08:35 |
|---|---|
| Airport | Split Saint Jerome Airport (LDSP) |
Arrival
| Time | 2026-04-26 09:55 |
|---|---|
| Airport | Zürich Airport (LSZH) |
| Time | Latitude | Longitude | Altitude | Speed | Heading |
|---|---|---|---|---|---|
| 2026-04-26 08:02 | 43.53584 | 16.29701 | 64 ft | 0 kts | 100° |
| 2026-04-26 08:29 | 43.53583 | 16.29704 | 64 ft | 1 kts | 110° |
| 2026-04-26 08:30 | 43.53577 | 16.29677 | 65 ft | 7 kts | 280° |
| 2026-04-26 08:30 | 43.53598 | 16.29619 | 63 ft | 7 kts | 315° |
| 2026-04-26 08:30 | 43.53633 | 16.29580 | 61 ft | 6 kts | 330° |
| 2026-04-26 08:30 | 43.53660 | 16.29577 | 66 ft | 1 kts | 9° |
| 2026-04-26 08:32 | 43.53666 | 16.29578 | 66 ft | 2 kts | 9° |
| 2026-04-26 08:32 | 43.53693 | 16.29561 | 71 ft | 7 kts | 302° |
| 2026-04-26 08:32 | 43.53688 | 16.29442 | 82 ft | 18 kts | 252° |
| 2026-04-26 08:32 | 43.53611 | 16.29283 | 82 ft | 21 kts | 233° |
| 2026-04-26 08:33 | 43.53517 | 16.29113 | 82 ft | 23 kts | 232° |
| 2026-04-26 08:33 | 43.53418 | 16.28934 | 84 ft | 24 kts | 232° |
| 2026-04-26 08:33 | 43.53315 | 16.28745 | 83 ft | 25 kts | 234° |
| 2026-04-26 08:33 | 43.53234 | 16.28586 | 73 ft | 14 kts | 246° |
| 2026-04-26 08:34 | 43.53209 | 16.28592 | 77 ft | 4 kts | 50° |
| 2026-04-26 08:34 | 43.53231 | 16.28613 | 76 ft | 3 kts | 36° |
| 2026-04-26 08:34 | 43.53248 | 16.28632 | 76 ft | 4 kts | 43° |
| 2026-04-26 08:34 | 43.53382 | 16.28869 | 80 ft | 69 kts | 53° |
| 2026-04-26 08:35 | 43.53809 | 16.29639 | 81 ft | 131 kts | 52° |
| 2026-04-26 08:35 | 43.54451 | 16.30800 | 312 ft | 158 kts | 54° |
| 2026-04-26 08:35 | 43.55115 | 16.31995 | 938 ft | 159 kts | 53° |
| 2026-04-26 08:35 | 43.55641 | 16.33330 | 1538 ft | 162 kts | 79° |
| 2026-04-26 08:36 | 43.55588 | 16.34869 | 2137 ft | 163 kts | 109° |
| 2026-04-26 08:36 | 43.54986 | 16.36179 | 2736 ft | 164 kts | 140° |
| 2026-04-26 08:36 | 43.53968 | 16.36850 | 3240 ft | 167 kts | 172° |
| 2026-04-26 08:36 | 43.52743 | 16.37012 | 3501 ft | 189 kts | 167° |
| 2026-04-26 08:37 | 43.51499 | 16.37770 | 3866 ft | 201 kts | 150° |
| 2026-04-26 08:37 | 43.50258 | 16.38680 | 4444 ft | 203 kts | 151° |
| 2026-04-26 08:37 | 43.49009 | 16.39579 | 5102 ft | 202 kts | 150° |
| 2026-04-26 08:37 | 43.47756 | 16.40488 | 5532 ft | 207 kts | 152° |
| 2026-04-26 08:38 | 43.46358 | 16.40910 | 6117 ft | 209 kts | 184° |
| 2026-04-26 08:38 | 43.44994 | 16.40172 | 6559 ft | 223 kts | 220° |
| 2026-04-26 08:38 | 43.43939 | 16.38465 | 6775 ft | 246 kts | 232° |
| 2026-04-26 08:38 | 43.42857 | 16.36493 | 7086 ft | 270 kts | 233° |
| 2026-04-26 08:39 | 43.41692 | 16.34364 | 7622 ft | 284 kts | 233° |
| 2026-04-26 08:39 | 43.40493 | 16.32180 | 8400 ft | 288 kts | 233° |
| 2026-04-26 08:39 | 43.39275 | 16.29972 | 9213 ft | 292 kts | 233° |
| 2026-04-26 08:39 | 43.38037 | 16.27742 | 10048 ft | 295 kts | 233° |
| 2026-04-26 08:40 | 43.36761 | 16.25447 | 10485 ft | 313 kts | 234° |
| 2026-04-26 08:40 | 43.35666 | 16.22778 | 10739 ft | 330 kts | 256° |
| 2026-04-26 08:40 | 43.35605 | 16.19639 | 11300 ft | 333 kts | 285° |
| 2026-04-26 08:40 | 43.36643 | 16.16820 | 11987 ft | 334 kts | 310° |
| 2026-04-26 08:41 | 43.38290 | 16.14571 | 12739 ft | 335 kts | 321° |
| 2026-04-26 08:41 | 43.40157 | 16.12631 | 13498 ft | 338 kts | 325° |
| 2026-04-26 08:41 | 43.42105 | 16.10800 | 14187 ft | 341 kts | 326° |
| 2026-04-26 08:41 | 43.44070 | 16.08950 | 14815 ft | 344 kts | 325° |
| 2026-04-26 08:42 | 43.46026 | 16.07025 | 15451 ft | 347 kts | 323° |
| 2026-04-26 08:42 | 43.47940 | 16.05043 | 16069 ft | 351 kts | 322° |
| 2026-04-26 08:42 | 43.49872 | 16.02963 | 16670 ft | 354 kts | 321° |
| 2026-04-26 08:42 | 43.51807 | 16.00830 | 17278 ft | 358 kts | 321° |
| 2026-04-26 08:43 | 43.53754 | 15.98659 | 17895 ft | 361 kts | 321° |
| 2026-04-26 08:43 | 43.55717 | 15.96467 | 18467 ft | 365 kts | 321° |
| 2026-04-26 08:43 | 43.57705 | 15.94256 | 18976 ft | 369 kts | 321° |
| 2026-04-26 08:43 | 43.59712 | 15.92036 | 19522 ft | 371 kts | 321° |
| 2026-04-26 08:44 | 43.61738 | 15.89799 | 20063 ft | 374 kts | 321° |
| 2026-04-26 08:44 | 43.63774 | 15.87551 | 20601 ft | 376 kts | 321° |
| 2026-04-26 08:44 | 43.65826 | 15.85285 | 21142 ft | 379 kts | 322° |
| 2026-04-26 08:44 | 43.67892 | 15.83005 | 21677 ft | 381 kts | 322° |
| 2026-04-26 08:45 | 43.69970 | 15.80706 | 22206 ft | 384 kts | 322° |
| 2026-04-26 08:45 | 43.72058 | 15.78388 | 22742 ft | 387 kts | 322° |
| 2026-04-26 08:45 | 43.74162 | 15.76052 | 23263 ft | 389 kts | 322° |
| 2026-04-26 08:45 | 43.76281 | 15.73694 | 23749 ft | 392 kts | 322° |
| 2026-04-26 08:46 | 43.78410 | 15.71320 | 24169 ft | 394 kts | 322° |
| 2026-04-26 08:46 | 43.80549 | 15.68933 | 24587 ft | 396 kts | 322° |
| 2026-04-26 08:46 | 43.82701 | 15.66530 | 24991 ft | 398 kts | 322° |
| 2026-04-26 08:46 | 43.84864 | 15.64117 | 25387 ft | 400 kts | 322° |
| 2026-04-26 08:47 | 43.87040 | 15.61692 | 25767 ft | 403 kts | 322° |
| 2026-04-26 08:47 | 43.89226 | 15.59251 | 26146 ft | 405 kts | 322° |
| 2026-04-26 08:47 | 43.91425 | 15.56792 | 26507 ft | 407 kts | 321° |
| 2026-04-26 08:47 | 43.93600 | 15.54357 | 26871 ft | 409 kts | 321° |
| 2026-04-26 08:48 | 43.95817 | 15.51871 | 27234 ft | 410 kts | 321° |
| 2026-04-26 08:48 | 43.98043 | 15.49374 | 27593 ft | 412 kts | 321° |
| 2026-04-26 08:48 | 44.00277 | 15.46863 | 27947 ft | 414 kts | 321° |
| 2026-04-26 08:48 | 44.02522 | 15.44338 | 28290 ft | 416 kts | 321° |
| 2026-04-26 08:49 | 44.04777 | 15.41799 | 28629 ft | 418 kts | 321° |
| 2026-04-26 08:49 | 44.07037 | 15.39249 | 28962 ft | 420 kts | 321° |
| 2026-04-26 08:49 | 44.09296 | 15.36667 | 29290 ft | 421 kts | 318° |
| 2026-04-26 08:49 | 44.11375 | 15.33781 | 29599 ft | 423 kts | 314° |
| 2026-04-26 08:50 | 44.13418 | 15.30817 | 29914 ft | 425 kts | 314° |
| 2026-04-26 08:50 | 44.15470 | 15.27841 | 30220 ft | 427 kts | 314° |
| 2026-04-26 08:50 | 44.17528 | 15.24860 | 30475 ft | 428 kts | 314° |
| 2026-04-26 08:50 | 44.19596 | 15.21867 | 30727 ft | 429 kts | 314° |
| 2026-04-26 08:51 | 44.23751 | 15.15844 | 31193 ft | 432 kts | 314° |
| 2026-04-26 08:51 | 44.25836 | 15.12815 | 31436 ft | 433 kts | 314° |
| 2026-04-26 08:51 | 44.27919 | 15.09787 | 31767 ft | 432 kts | 314° |
| 2026-04-26 08:52 | 44.29996 | 15.06762 | 32071 ft | 431 kts | 314° |
| 2026-04-26 08:52 | 44.32070 | 15.03738 | 32385 ft | 430 kts | 314° |
| 2026-04-26 08:52 | 44.34136 | 15.00717 | 32712 ft | 430 kts | 314° |
| 2026-04-26 08:52 | 44.36195 | 14.97702 | 33018 ft | 429 kts | 314° |
| 2026-04-26 08:53 | 44.38253 | 14.94686 | 33317 ft | 428 kts | 313° |
| 2026-04-26 08:53 | 44.40309 | 14.91673 | 33631 ft | 428 kts | 313° |
| 2026-04-26 08:53 | 44.42360 | 14.88664 | 33941 ft | 427 kts | 313° |
| 2026-04-26 08:53 | 44.44407 | 14.85653 | 34096 ft | 426 kts | 313° |
| 2026-04-26 08:54 | 44.46430 | 14.82675 | 34119 ft | 419 kts | 313° |
| 2026-04-26 08:54 | 44.50417 | 14.76798 | 34119 ft | 415 kts | 313° |
| 2026-04-26 08:55 | 44.54391 | 14.70939 | 34117 ft | 415 kts | 313° |
| 2026-04-26 08:55 | 44.58357 | 14.65072 | 34115 ft | 414 kts | 313° |
| 2026-04-26 08:56 | 44.62293 | 14.59236 | 34110 ft | 414 kts | 313° |
| 2026-04-26 08:56 | 44.66251 | 14.53357 | 34114 ft | 414 kts | 313° |
| 2026-04-26 08:57 | 44.70207 | 14.47473 | 34111 ft | 414 kts | 313° |
| 2026-04-26 08:57 | 44.74155 | 14.41586 | 34112 ft | 414 kts | 313° |
| 2026-04-26 08:58 | 44.78098 | 14.35691 | 34108 ft | 413 kts | 313° |
| 2026-04-26 08:58 | 44.82033 | 14.29792 | 34107 ft | 413 kts | 313° |
| 2026-04-26 08:59 | 44.85966 | 14.23888 | 34111 ft | 413 kts | 313° |
| 2026-04-26 08:59 | 44.89890 | 14.17978 | 34116 ft | 413 kts | 313° |
| 2026-04-26 09:00 | 44.93815 | 14.12066 | 34116 ft | 413 kts | 313° |
| 2026-04-26 09:00 | 44.97737 | 14.06143 | 34102 ft | 413 kts | 313° |
| 2026-04-26 09:01 | 45.01651 | 14.00209 | 34113 ft | 413 kts | 313° |
| 2026-04-26 09:01 | 45.05563 | 13.94268 | 34112 ft | 413 kts | 313° |
| 2026-04-26 09:02 | 45.09477 | 13.88327 | 34099 ft | 413 kts | 313° |
| 2026-04-26 09:02 | 45.13363 | 13.82418 | 34110 ft | 413 kts | 313° |
| 2026-04-26 09:03 | 45.17265 | 13.76457 | 34107 ft | 413 kts | 313° |
| 2026-04-26 09:03 | 45.21164 | 13.70482 | 34105 ft | 413 kts | 313° |
| 2026-04-26 09:04 | 45.25062 | 13.64502 | 34103 ft | 413 kts | 313° |
| 2026-04-26 09:04 | 45.28964 | 13.58517 | 34104 ft | 413 kts | 313° |
| 2026-04-26 09:05 | 45.32857 | 13.52520 | 34109 ft | 412 kts | 313° |
| 2026-04-26 09:05 | 45.36738 | 13.46518 | 34109 ft | 412 kts | 313° |
| 2026-04-26 09:06 | 45.40617 | 13.40511 | 34109 ft | 412 kts | 312° |
| 2026-04-26 09:06 | 45.44497 | 13.34498 | 34108 ft | 412 kts | 312° |
| 2026-04-26 09:07 | 45.48368 | 13.28472 | 34102 ft | 412 kts | 312° |
| 2026-04-26 09:07 | 45.52404 | 13.22670 | 34101 ft | 412 kts | 316° |
| 2026-04-26 09:08 | 45.56634 | 13.17142 | 34105 ft | 412 kts | 317° |
| 2026-04-26 09:08 | 45.60834 | 13.11641 | 34104 ft | 412 kts | 316° |
| 2026-04-26 09:09 | 45.65014 | 13.06022 | 34106 ft | 413 kts | 316° |
| 2026-04-26 09:09 | 45.69172 | 13.00362 | 34092 ft | 413 kts | 316° |
| 2026-04-26 09:10 | 45.73329 | 12.94692 | 34103 ft | 413 kts | 316° |
| 2026-04-26 09:10 | 45.77484 | 12.89023 | 34103 ft | 413 kts | 316° |
| 2026-04-26 09:11 | 45.81644 | 12.83355 | 34107 ft | 412 kts | 316° |
| 2026-04-26 09:11 | 45.85799 | 12.77683 | 34112 ft | 412 kts | 316° |
| 2026-04-26 09:12 | 45.89947 | 12.72005 | 34112 ft | 412 kts | 316° |
| 2026-04-26 09:12 | 45.94091 | 12.66330 | 34105 ft | 411 kts | 316° |
| 2026-04-26 09:13 | 45.98225 | 12.60649 | 34108 ft | 411 kts | 316° |
| 2026-04-26 09:13 | 46.02354 | 12.54965 | 34110 ft | 411 kts | 316° |
| 2026-04-26 09:14 | 46.06475 | 12.49264 | 34107 ft | 410 kts | 316° |
| 2026-04-26 09:14 | 46.10587 | 12.43558 | 34112 ft | 410 kts | 316° |
| 2026-04-26 09:15 | 46.14665 | 12.37879 | 34106 ft | 411 kts | 315° |
| 2026-04-26 09:15 | 46.18777 | 12.32158 | 34113 ft | 411 kts | 315° |
| 2026-04-26 09:16 | 46.22888 | 12.26427 | 34111 ft | 411 kts | 315° |
| 2026-04-26 09:16 | 46.27002 | 12.20692 | 34124 ft | 411 kts | 315° |
| 2026-04-26 09:17 | 46.31113 | 12.14948 | 34122 ft | 411 kts | 315° |
| 2026-04-26 09:17 | 46.35219 | 12.09185 | 34146 ft | 411 kts | 315° |
| 2026-04-26 09:18 | 46.39331 | 12.03412 | 34129 ft | 412 kts | 315° |
| 2026-04-26 09:18 | 46.43449 | 11.97608 | 34138 ft | 413 kts | 315° |
| 2026-04-26 09:19 | 46.47562 | 11.91788 | 34140 ft | 413 kts | 315° |
| 2026-04-26 09:19 | 46.51680 | 11.85958 | 34141 ft | 414 kts | 315° |
| 2026-04-26 09:20 | 46.55103 | 11.81108 | 34152 ft | 414 kts | 315° |
| 2026-04-26 09:20 | 46.59214 | 11.75258 | 34157 ft | 414 kts | 314° |
| 2026-04-26 09:21 | 46.63285 | 11.69348 | 34157 ft | 413 kts | 313° |
| 2026-04-26 09:21 | 46.67234 | 11.63265 | 34156 ft | 413 kts | 312° |
| 2026-04-26 09:22 | 46.71152 | 11.57133 | 34165 ft | 414 kts | 312° |
| 2026-04-26 09:22 | 46.75089 | 11.51011 | 34170 ft | 414 kts | 312° |
| 2026-04-26 09:23 | 46.79047 | 11.44909 | 34192 ft | 414 kts | 312° |
| 2026-04-26 09:23 | 46.83005 | 11.38799 | 34219 ft | 414 kts | 312° |
| 2026-04-26 09:24 | 46.86952 | 11.32674 | 34235 ft | 414 kts | 312° |
| 2026-04-26 09:24 | 46.90888 | 11.26537 | 34234 ft | 414 kts | 312° |
| 2026-04-26 09:25 | 46.94988 | 11.20644 | 34225 ft | 414 kts | 322° |
| 2026-04-26 09:25 | 46.99834 | 11.16058 | 34241 ft | 415 kts | 326° |
| 2026-04-26 09:26 | 47.04733 | 11.11566 | 34238 ft | 415 kts | 326° |
| 2026-04-26 09:26 | 47.09563 | 11.06932 | 34248 ft | 414 kts | 320° |
| 2026-04-26 09:27 | 47.14019 | 11.01593 | 34245 ft | 413 kts | 319° |
| 2026-04-26 09:27 | 47.18476 | 10.96253 | 34237 ft | 413 kts | 320° |
| 2026-04-26 09:28 | 47.22938 | 10.90927 | 34240 ft | 413 kts | 320° |
| 2026-04-26 09:28 | 47.27366 | 10.85618 | 34231 ft | 413 kts | 319° |
| 2026-04-26 09:29 | 47.31811 | 10.80255 | 34235 ft | 413 kts | 319° |
| 2026-04-26 09:29 | 47.36251 | 10.74887 | 34241 ft | 413 kts | 319° |
| 2026-04-26 09:30 | 47.40748 | 10.69605 | 34226 ft | 413 kts | 322° |
| 2026-04-26 09:30 | 47.45472 | 10.64763 | 34237 ft | 414 kts | 324° |
| 2026-04-26 09:31 | 47.50272 | 10.60064 | 34242 ft | 414 kts | 324° |
| 2026-04-26 09:31 | 47.55034 | 10.55286 | 34239 ft | 413 kts | 323° |
| 2026-04-26 09:32 | 47.59751 | 10.50414 | 34231 ft | 413 kts | 322° |
| 2026-04-26 09:32 | 47.64451 | 10.45511 | 34224 ft | 413 kts | 322° |
| 2026-04-26 09:33 | 47.69131 | 10.40568 | 34236 ft | 412 kts | 317° |
| 2026-04-26 09:33 | 47.71142 | 10.37580 | 34237 ft | 408 kts | 306° |
| 2026-04-26 09:33 | 47.72699 | 10.34081 | 34233 ft | 406 kts | 295° |
| 2026-04-26 09:34 | 47.74278 | 10.26131 | 34232 ft | 403 kts | 274° |
| 2026-04-26 09:34 | 47.74196 | 10.17811 | 34221 ft | 403 kts | 268° |
| 2026-04-26 09:35 | 47.74001 | 10.09392 | 34239 ft | 413 kts | 268° |
| 2026-04-26 09:35 | 47.73795 | 10.00888 | 34231 ft | 415 kts | 268° |
| 2026-04-26 09:36 | 47.73585 | 9.92310 | 34245 ft | 415 kts | 268° |
| 2026-04-26 09:36 | 47.73477 | 9.88023 | 33752 ft | 416 kts | 268° |
| 2026-04-26 09:36 | 47.73366 | 9.83726 | 32984 ft | 416 kts | 268° |
| 2026-04-26 09:36 | 47.73257 | 9.79443 | 32320 ft | 414 kts | 268° |
| 2026-04-26 09:37 | 47.73146 | 9.75187 | 31700 ft | 411 kts | 268° |
| 2026-04-26 09:37 | 47.73032 | 9.70961 | 31116 ft | 408 kts | 267° |
| 2026-04-26 09:37 | 47.72919 | 9.66765 | 30559 ft | 405 kts | 267° |
| 2026-04-26 09:37 | 47.72803 | 9.62597 | 29969 ft | 403 kts | 267° |
| 2026-04-26 09:38 | 47.72685 | 9.58456 | 29361 ft | 400 kts | 267° |
| 2026-04-26 09:38 | 47.72567 | 9.54347 | 28773 ft | 397 kts | 267° |
| 2026-04-26 09:38 | 47.72447 | 9.50272 | 28198 ft | 394 kts | 267° |
| 2026-04-26 09:38 | 47.72229 | 9.46242 | 27641 ft | 390 kts | 259° |
| 2026-04-26 09:39 | 47.71464 | 9.42399 | 27108 ft | 387 kts | 246° |
| 2026-04-26 09:39 | 47.70135 | 9.38946 | 26578 ft | 386 kts | 234° |
| 2026-04-26 09:39 | 47.68473 | 9.35869 | 25760 ft | 380 kts | 232° |
| 2026-04-26 09:39 | 47.66808 | 9.32837 | 24879 ft | 377 kts | 232° |
| 2026-04-26 09:40 | 47.65158 | 9.29841 | 24040 ft | 373 kts | 232° |
| 2026-04-26 09:40 | 47.63522 | 9.26878 | 23107 ft | 370 kts | 232° |
| 2026-04-26 09:40 | 47.61924 | 9.23984 | 22260 ft | 365 kts | 232° |
| 2026-04-26 09:40 | 47.60400 | 9.21072 | 21798 ft | 349 kts | 239° |
| 2026-04-26 09:41 | 47.59325 | 9.17945 | 21365 ft | 334 kts | 251° |
| 2026-04-26 09:41 | 47.58735 | 9.14702 | 20955 ft | 320 kts | 261° |
| 2026-04-26 09:41 | 47.58352 | 9.11519 | 20550 ft | 308 kts | 261° |
| 2026-04-26 09:41 | 47.57973 | 9.08428 | 20163 ft | 305 kts | 261° |
| 2026-04-26 09:42 | 47.57758 | 9.05316 | 19772 ft | 303 kts | 271° |
| 2026-04-26 09:42 | 47.57973 | 9.02226 | 19382 ft | 303 kts | 283° |
| 2026-04-26 09:42 | 47.58643 | 8.99173 | 19220 ft | 319 kts | 292° |
| 2026-04-26 09:42 | 47.59489 | 8.96100 | 19231 ft | 324 kts | 292° |
| 2026-04-26 09:43 | 47.60334 | 8.93003 | 19224 ft | 324 kts | 292° |
| 2026-04-26 09:43 | 47.61180 | 8.89891 | 18428 ft | 329 kts | 292° |
| 2026-04-26 09:43 | 47.62046 | 8.86697 | 17300 ft | 337 kts | 292° |
| 2026-04-26 09:43 | 47.62743 | 8.83451 | 16858 ft | 323 kts | 281° |
| 2026-04-26 09:44 | 47.62886 | 8.80205 | 16482 ft | 311 kts | 266° |
| 2026-04-26 09:44 | 47.62513 | 8.77149 | 16094 ft | 301 kts | 253° |
| 2026-04-26 09:44 | 47.61755 | 8.74310 | 15722 ft | 291 kts | 249° |
| 2026-04-26 09:44 | 47.60965 | 8.71528 | 15348 ft | 289 kts | 248° |
| 2026-04-26 09:45 | 47.60201 | 8.68826 | 14989 ft | 287 kts | 249° |
| 2026-04-26 09:45 | 47.59458 | 8.66095 | 14627 ft | 285 kts | 255° |
| 2026-04-26 09:45 | 47.59145 | 8.63228 | 14272 ft | 283 kts | 271° |
| 2026-04-26 09:45 | 47.59412 | 8.60355 | 13900 ft | 282 kts | 288° |
| 2026-04-26 09:46 | 47.60223 | 8.57720 | 13514 ft | 282 kts | 304° |
| 2026-04-26 09:46 | 47.61505 | 8.55537 | 13148 ft | 282 kts | 317° |
| 2026-04-26 09:46 | 47.62950 | 8.53575 | 12765 ft | 282 kts | 317° |
| 2026-04-26 09:46 | 47.64394 | 8.51604 | 12403 ft | 282 kts | 317° |
| 2026-04-26 09:47 | 47.65831 | 8.49629 | 12053 ft | 281 kts | 317° |
| 2026-04-26 09:47 | 47.67268 | 8.47655 | 11696 ft | 281 kts | 317° |
| 2026-04-26 09:47 | 47.68703 | 8.45683 | 11341 ft | 281 kts | 317° |
| 2026-04-26 09:47 | 47.70137 | 8.43713 | 10959 ft | 281 kts | 317° |
| 2026-04-26 09:48 | 47.71580 | 8.41730 | 10548 ft | 284 kts | 318° |
| 2026-04-26 09:48 | 47.73013 | 8.39699 | 10135 ft | 286 kts | 311° |
| 2026-04-26 09:48 | 47.73917 | 8.37079 | 9669 ft | 290 kts | 281° |
| 2026-04-26 09:48 | 47.73802 | 8.34120 | 9209 ft | 289 kts | 250° |
| 2026-04-26 09:49 | 47.72750 | 8.31646 | 8627 ft | 284 kts | 228° |
| 2026-04-26 09:49 | 47.71425 | 8.29498 | 8058 ft | 279 kts | 227° |
| 2026-04-26 09:49 | 47.69948 | 8.27739 | 7583 ft | 269 kts | 201° |
| 2026-04-26 09:49 | 47.68161 | 8.27365 | 7137 ft | 256 kts | 168° |
| 2026-04-26 09:50 | 47.66584 | 8.28379 | 6745 ft | 244 kts | 139° |
| 2026-04-26 09:50 | 47.65344 | 8.30039 | 6325 ft | 234 kts | 135° |
| 2026-04-26 09:50 | 47.64201 | 8.31644 | 5950 ft | 219 kts | 134° |
| 2026-04-26 09:50 | 47.63123 | 8.33138 | 5549 ft | 207 kts | 135° |
| 2026-04-26 09:51 | 47.62085 | 8.34569 | 5074 ft | 201 kts | 134° |
| 2026-04-26 09:51 | 47.61073 | 8.35963 | 4723 ft | 196 kts | 135° |
| 2026-04-26 09:51 | 47.60069 | 8.37344 | 4553 ft | 198 kts | 135° |
| 2026-04-26 09:51 | 47.59064 | 8.38727 | 4315 ft | 197 kts | 134° |
| 2026-04-26 09:52 | 47.58061 | 8.40106 | 4061 ft | 197 kts | 134° |
| 2026-04-26 09:52 | 47.56126 | 8.42760 | 3566 ft | 182 kts | 133° |
| 2026-04-26 09:52 | 47.55210 | 8.44015 | 3334 ft | 174 kts | 132° |
| 2026-04-26 09:53 | 47.54363 | 8.45175 | 3106 ft | 159 kts | 133° |
| 2026-04-26 09:53 | 47.53586 | 8.46240 | 2899 ft | 147 kts | 133° |
| 2026-04-26 09:53 | 47.52850 | 8.47249 | 2717 ft | 142 kts | 131° |
| 2026-04-26 09:53 | 47.52134 | 8.48232 | 2520 ft | 140 kts | 133° |
| 2026-04-26 09:54 | 47.51435 | 8.49190 | 2341 ft | 140 kts | 133° |
| 2026-04-26 09:54 | 47.50721 | 8.50167 | 2150 ft | 140 kts | 133° |
| 2026-04-26 09:54 | 47.50009 | 8.51143 | 1947 ft | 139 kts | 131° |
| 2026-04-26 09:54 | 47.49309 | 8.52117 | 1751 ft | 138 kts | 131° |
| 2026-04-26 09:55 | 47.48601 | 8.53077 | 1568 ft | 139 kts | 133° |
| 2026-04-26 09:55 | 47.47889 | 8.54038 | 1414 ft | 138 kts | 133° |
| 2026-04-26 09:55 | 47.47282 | 8.54879 | 1388 ft | 97 kts | 137° |
| 2026-04-26 09:55 | 47.46910 | 8.55380 | 1391 ft | 49 kts | 137° |
| 2026-04-26 09:56 | 47.46671 | 8.55649 | 1397 ft | 38 kts | 158° |
| 2026-04-26 09:56 | 47.46504 | 8.55709 | 1395 ft | 16 kts | 166° |
| 2026-04-26 09:56 | 47.46403 | 8.55749 | 1403 ft | 14 kts | 158° |
| 2026-04-26 09:56 | 47.46336 | 8.55822 | 1400 ft | 11 kts | 137° |
| 2026-04-26 09:57 | 47.46291 | 8.55883 | 1405 ft | 7 kts | 137° |
| 2026-04-26 09:57 | 47.46251 | 8.55937 | 1407 ft | 10 kts | 137° |
| 2026-04-26 09:57 | 47.46196 | 8.55996 | 1407 ft | 9 kts | 160° |
| 2026-04-26 09:57 | 47.46142 | 8.55996 | 1406 ft | 7 kts | 186° |
| 2026-04-26 09:58 | 47.46104 | 8.55990 | 1407 ft | 4 kts | 186° |
| 2026-04-26 09:58 | 47.46075 | 8.55986 | 1407 ft | 8 kts | 185° |
| 2026-04-26 09:58 | 47.45994 | 8.55975 | 1406 ft | 11 kts | 186° |
| 2026-04-26 09:58 | 47.45926 | 8.55947 | 1411 ft | 9 kts | 200° |
| 2026-04-26 09:59 | 47.45881 | 8.55923 | 1414 ft | 5 kts | 200° |
| 2026-04-26 09:59 | 47.45866 | 8.55915 | 1414 ft | 2 kts | 200° |
| 2026-04-26 09:59 | 47.45819 | 8.55890 | 1414 ft | 13 kts | 198° |
| 2026-04-26 09:59 | 47.45729 | 8.55868 | 1411 ft | 13 kts | 186° |
| 2026-04-26 10:00 | 47.45642 | 8.55856 | 1408 ft | 12 kts | 185° |
| 2026-04-26 10:00 | 47.45565 | 8.55844 | 1408 ft | 11 kts | 187° |
| 2026-04-26 10:00 | 47.45500 | 8.55878 | 1407 ft | 11 kts | 109° |
| 2026-04-26 10:00 | 47.45491 | 8.55989 | 1407 ft | 10 kts | 96° |
| 2026-04-26 10:01 | 47.45484 | 8.56093 | 1407 ft | 9 kts | 96° |
| 2026-04-26 10:01 | 47.45455 | 8.56125 | 1410 ft | 7 kts | 181° |
| 2026-04-26 10:01 | 47.45428 | 8.56121 | 1407 ft | 3 kts | 187° |
| 2026-04-26 10:01 | 47.45412 | 8.56119 | 1407 ft | 1 kts | 186° |
| 2026-04-26 10:02 | 47.45406 | 8.56118 | 1407 ft | 0 kts | 186° |